createdAt,value
2022-11-14T00:00:56.001Z,87.47
2022-11-14T00:03:44.753Z,87.50
2022-11-14T00:06:33.235Z,103.78
2022-11-14T00:09:28.688Z,82.20
2022-11-14T00:12:17.383Z,93.70
2022-11-14T00:15:07.457Z,81.90
2022-11-14T00:17:56.601Z,85.80
2022-11-14T00:20:45.521Z,80.80
2022-11-14T00:23:34.361Z,94.18
2022-11-14T00:26:26.122Z,77.95
2022-11-14T00:29:15.106Z,84.40
2022-11-14T00:32:03.697Z,80.07
2022-11-14T00:34:53.046Z,79.75
2022-11-14T00:37:42.079Z,91.28
2022-11-14T00:40:30.409Z,78.45
2022-11-14T00:43:25.355Z,95.30
2022-11-14T00:46:15.111Z,95.10
2022-11-14T00:49:04.223Z,89.18
2022-11-14T00:51:52.744Z,89.45
2022-11-14T00:54:41.608Z,83.25
2022-11-14T00:57:30.343Z,87.20
2022-11-14T01:00:22.300Z,92.10
2022-11-14T01:03:10.907Z,102.05
2022-11-14T01:05:59.468Z,92.90
2022-11-14T01:08:48.569Z,84.07
2022-11-14T01:11:37.433Z,90.63
2022-11-14T01:14:26.216Z,82.68
2022-11-14T01:17:17.364Z,96.85
2022-11-14T01:20:06.709Z,84.28
2022-11-14T01:22:55.152Z,79.72
2022-11-14T01:25:45.237Z,91.25
2022-11-14T01:28:34.923Z,92.85
2022-11-14T01:31:27.121Z,105.55
2022-11-14T01:34:19.035Z,92.30
2022-11-14T01:37:07.721Z,87.30
2022-11-14T01:39:56.911Z,76.90
2022-11-14T01:42:46.040Z,88.07
2022-11-14T01:45:56.115Z,75.80
2022-11-14T01:48:48.835Z,73.15
2022-11-14T01:51:44.100Z,81.68
2022-11-14T01:54:37.635Z,90.05
2022-11-14T01:57:30.651Z,68.85
2022-11-14T02:00:19.741Z,83.32
2022-11-14T02:03:08.255Z,83.32
2022-11-14T02:05:57.701Z,71.10
2022-11-14T02:08:51.016Z,81.25
2022-11-14T02:11:44.091Z,80.93
2022-11-14T02:14:33.351Z,81.32
2022-11-14T02:17:29.484Z,76.65
2022-11-14T02:20:28.660Z,71.82
2022-11-14T02:23:20.998Z,72.15
2022-11-14T02:26:09.601Z,80.38
2022-11-14T02:28:58.528Z,68.43
2022-11-14T02:31:46.833Z,72.38
2022-11-14T02:34:35.619Z,70.68
2022-11-14T02:37:26.825Z,75.18
2022-11-14T02:40:15.814Z,87.20
2022-11-14T02:43:04.557Z,63.67
2022-11-14T02:45:53.968Z,69.72
2022-11-14T02:48:43.156Z,69.10
2022-11-14T02:51:32.118Z,78.47
2022-11-14T02:54:24.207Z,75.72
2022-11-14T02:57:13.032Z,64.10
2022-11-14T03:00:01.670Z,61.72
2022-11-14T03:02:50.741Z,61.90
2022-11-14T03:05:39.362Z,59.58
2022-11-14T03:08:28.279Z,63.15
2022-11-14T03:11:21.271Z,55.75
2022-11-14T03:14:09.733Z,56.72
2022-11-14T03:16:58.536Z,79.25
2022-11-14T03:19:47.354Z,68.60
2022-11-14T03:22:35.680Z,73.53
2022-11-14T03:25:24.313Z,65.85
2022-11-14T03:28:16.060Z,58.63
2022-11-14T03:31:05.863Z,64.25
2022-11-14T03:33:54.533Z,68.72
2022-11-14T03:36:43.606Z,64.38
2022-11-14T03:39:31.992Z,70.40
2022-11-14T03:42:20.548Z,56.75
2022-11-14T03:45:13.840Z,57.30
2022-11-14T03:48:02.930Z,52.30
2022-11-14T03:50:51.701Z,63.22
2022-11-14T03:53:40.846Z,55.53
2022-11-14T03:56:29.853Z,52.75
2022-11-14T03:59:18.721Z,67.97
2022-11-14T04:02:10.213Z,54.65
2022-11-14T04:04:58.998Z,57.10
2022-11-14T04:07:47.625Z,65.25
2022-11-14T04:10:36.125Z,65.22
2022-11-14T04:13:24.929Z,54.03
2022-11-14T04:16:14.438Z,62.38
2022-11-14T04:19:05.578Z,62.17
2022-11-14T04:21:53.856Z,54.45
2022-11-14T04:24:42.490Z,58.42
2022-11-14T04:27:31.759Z,59.80
2022-11-14T04:30:20.986Z,71.47
2022-11-14T04:33:09.756Z,56.17
2022-11-14T04:36:01.296Z,56.75
2022-11-14T04:38:49.760Z,58.45
2022-11-14T04:41:38.632Z,69.20
2022-11-14T04:44:27.703Z,51.42
2022-11-14T04:47:16.147Z,58.13
2022-11-14T04:50:05.177Z,62.42
2022-11-14T04:52:57.785Z,55.53
2022-11-14T04:55:47.736Z,65.45
2022-11-14T04:58:36.272Z,56.22
2022-11-14T05:01:25.298Z,73.82
2022-11-14T05:04:14.324Z,65.07
2022-11-14T05:07:03.113Z,64.15
2022-11-14T05:09:54.523Z,62.20
2022-11-14T05:12:43.696Z,59.30
2022-11-14T05:15:33.229Z,71.32
2022-11-14T05:18:21.873Z,64.53
2022-11-14T05:21:10.550Z,67.57
2022-11-14T05:23:58.942Z,67.50
2022-11-14T05:26:50.328Z,72.38
2022-11-14T05:29:38.884Z,64.60
2022-11-14T05:32:28.149Z,69.32
2022-11-14T05:35:17.050Z,82.70
2022-11-14T05:38:08.685Z,66.10
2022-11-14T05:40:57.957Z,64.30
2022-11-14T05:43:50.323Z,67.38
2022-11-14T05:46:39.039Z,79.63
2022-11-14T05:49:28.012Z,80.07
2022-11-14T05:52:16.841Z,75.32
2022-11-14T05:55:05.739Z,70.28
2022-11-14T05:57:55.104Z,58.95
2022-11-14T06:00:53.451Z,57.40
2022-11-14T06:03:45.717Z,52.30
2022-11-14T06:06:34.465Z,58.65
2022-11-14T06:09:23.121Z,73.00
2022-11-14T06:12:11.600Z,59.75
2022-11-14T06:15:01.178Z,67.47
2022-11-14T06:17:55.013Z,63.88
2022-11-14T06:20:43.724Z,65.55
2022-11-14T06:23:32.452Z,57.22
2022-11-14T06:26:24.927Z,65.68
2022-11-14T06:29:13.689Z,60.50
2022-11-14T06:32:02.495Z,65.93
2022-11-14T06:34:54.138Z,58.33
2022-11-14T06:37:42.486Z,68.97
2022-11-14T06:40:31.539Z,68.97
2022-11-14T06:43:21.487Z,58.05
2022-11-14T06:46:11.350Z,61.50
2022-11-14T06:48:59.988Z,69.88
2022-11-14T06:51:51.652Z,73.03
2022-11-14T06:54:40.577Z,71.75
2022-11-14T06:57:30.395Z,63.92
2022-11-14T07:00:20.340Z,59.03
2022-11-14T07:03:09.115Z,61.78
2022-11-14T07:06:01.607Z,64.35
2022-11-14T07:08:55.107Z,62.60
2022-11-14T07:11:46.622Z,72.35
2022-11-14T07:14:35.464Z,79.30
2022-11-14T07:17:30.795Z,64.63
2022-11-14T07:20:21.378Z,60.65
2022-11-14T07:23:10.056Z,64.38
2022-11-14T07:26:05.075Z,64.25
2022-11-14T07:28:59.177Z,75.72
2022-11-14T07:31:50.715Z,56.88
2022-11-14T07:34:40.060Z,68.18
2022-11-14T07:37:29.020Z,71.00
2022-11-14T07:40:17.779Z,53.83
2022-11-14T07:43:09.642Z,63.38
2022-11-14T07:46:04.146Z,57.13
2022-11-14T07:51:42.307Z,54.63
2022-11-14T07:54:31.128Z,64.45
2022-11-14T07:57:19.632Z,51.33
2022-11-14T08:00:13.200Z,49.35
2022-11-14T08:03:01.936Z,67.37
2022-11-14T08:05:50.563Z,52.38
2022-11-14T08:08:40.585Z,49.88
2022-11-14T08:11:41.375Z,68.18
2022-11-14T08:14:29.745Z,47.28
2022-11-14T08:17:21.772Z,48.35
2022-11-14T08:20:12.840Z,45.53
2022-11-14T08:23:05.597Z,48.80
2022-11-14T08:25:54.096Z,57.10
2022-11-14T08:28:42.987Z,46.38
2022-11-14T08:31:32.015Z,49.25
2022-11-14T08:34:24.079Z,62.03
2022-11-14T08:37:13.096Z,49.50
2022-11-14T08:40:01.961Z,48.80
2022-11-14T08:42:50.687Z,56.63
2022-11-14T08:45:40.607Z,51.80
2022-11-14T08:48:29.888Z,42.03
2022-11-14T08:51:21.471Z,46.10
2022-11-14T08:54:10.171Z,46.95
2022-11-14T08:56:58.833Z,42.05
2022-11-14T08:59:47.470Z,48.20
2022-11-14T09:02:35.700Z,41.83
2022-11-14T09:05:24.402Z,41.72
2022-11-14T09:08:16.490Z,47.15
2022-11-14T09:11:09.273Z,41.17
2022-11-14T09:13:58.697Z,44.63
2022-11-14T09:16:47.497Z,44.25
2022-11-14T09:19:36.293Z,41.88
2022-11-14T09:22:24.895Z,42.45
2022-11-14T09:25:16.387Z,51.55
2022-11-14T09:28:07.404Z,42.65
2022-11-14T09:31:04.139Z,42.20
2022-11-14T09:33:52.793Z,34.92
2022-11-14T09:36:41.278Z,41.70
2022-11-14T09:39:30.423Z,40.70
2022-11-14T09:42:31.141Z,40.33
2022-11-14T09:45:20.742Z,42.38
2022-11-14T09:48:16.356Z,51.83
2022-11-14T09:51:12.254Z,39.00
2022-11-14T09:54:08.471Z,44.35
2022-11-14T09:56:57.828Z,40.13
2022-11-14T09:59:49.365Z,42.67
2022-11-14T10:02:47.671Z,39.80
2022-11-14T10:06:00.055Z,40.85
2022-11-14T10:08:59.280Z,48.63
2022-11-14T10:11:54.113Z,38.35
2022-11-14T10:15:18.613Z,41.33
2022-11-14T10:18:22.034Z,40.73
2022-11-14T10:21:22.467Z,42.42
2022-11-14T10:24:31.575Z,41.08
2022-11-14T10:27:23.287Z,38.78
2022-11-14T10:30:25.682Z,44.10
2022-11-14T10:33:28.905Z,40.92
2022-11-14T10:36:29.605Z,41.17
2022-11-14T10:39:23.093Z,47.88
2022-11-14T10:42:17.240Z,46.58
2022-11-14T10:45:11.836Z,46.63
2022-11-14T10:48:06.416Z,44.20
2022-11-14T10:50:59.194Z,46.45
2022-11-14T10:53:55.042Z,45.63
2022-11-14T10:56:51.567Z,45.33
2022-11-14T10:59:40.357Z,46.67
2022-11-14T11:02:32.764Z,47.92
2022-11-14T11:05:32.767Z,48.03
2022-11-14T11:08:43.117Z,49.78
2022-11-14T11:11:35.262Z,46.53
2022-11-14T11:14:24.487Z,47.13
2022-11-14T11:17:29.476Z,48.15
2022-11-14T11:20:38.186Z,47.75
2022-11-14T11:23:29.905Z,48.55
2022-11-14T11:26:28.486Z,47.65
2022-11-14T11:29:21.014Z,49.58
2022-11-14T11:32:11.677Z,49.58
2022-11-14T11:35:02.649Z,46.58
2022-11-14T11:38:00.279Z,44.47
2022-11-14T11:40:53.906Z,44.35
2022-11-14T11:43:54.070Z,42.42
2022-11-14T11:46:50.591Z,42.40
2022-11-14T11:49:51.772Z,41.05
2022-11-14T11:52:50.727Z,39.88
2022-11-14T11:55:46.414Z,40.53
2022-11-14T11:58:44.573Z,41.15
2022-11-14T12:01:33.680Z,38.75
2022-11-14T12:04:22.223Z,40.65
2022-11-14T12:07:15.627Z,42.03
2022-11-14T12:10:14.775Z,43.35
2022-11-14T12:13:33.315Z,45.08
2022-11-14T12:16:35.948Z,40.13
2022-11-14T12:19:46.469Z,42.42
2022-11-14T12:22:58.836Z,44.03
2022-11-14T12:26:04.679Z,40.92
2022-11-14T12:29:19.811Z,43.22
2022-11-14T12:32:16.639Z,46.40
2022-11-14T12:35:10.911Z,40.05
2022-11-14T12:40:58.072Z,42.92
2022-11-14T12:43:47.786Z,44.17
2022-11-14T12:47:20.040Z,40.92
2022-11-14T12:50:37.205Z,44.10
2022-11-14T12:53:42.380Z,40.83
2022-11-14T12:56:56.606Z,40.85
2022-11-14T13:00:05.467Z,43.13
2022-11-14T13:03:20.889Z,44.03
2022-11-14T13:06:13.152Z,41.95
2022-11-14T13:09:35.599Z,42.85
2022-11-14T13:12:45.537Z,42.47
2022-11-14T13:15:50.013Z,45.08
2022-11-14T13:19:09.886Z,43.10
2022-11-14T13:22:37.283Z,41.90
2022-11-14T13:25:27.325Z,41.58
2022-11-14T13:28:45.681Z,43.00
2022-11-14T13:31:51.563Z,46.80
2022-11-14T13:34:48.603Z,41.17
2022-11-14T13:37:57.888Z,41.42
2022-11-14T13:40:54.265Z,42.03
2022-11-14T13:43:59.696Z,43.38
2022-11-14T13:47:13.074Z,43.03
2022-11-14T13:50:12.018Z,46.05
2022-11-14T13:53:01.640Z,43.38
2022-11-14T13:55:58.907Z,43.83
2022-11-14T13:59:09.784Z,47.30
2022-11-14T14:02:24.661Z,45.88
2022-11-14T14:05:27.197Z,45.60
2022-11-14T14:08:27.754Z,46.17
2022-11-14T14:11:43.005Z,47.42
2022-11-14T14:14:51.329Z,45.40
2022-11-14T14:17:50.373Z,46.90
2022-11-14T14:20:50.156Z,45.47
2022-11-14T14:23:49.355Z,46.72
2022-11-14T14:26:55.923Z,51.10
2022-11-14T14:29:54.588Z,47.45
2022-11-14T14:32:43.289Z,48.03
2022-11-14T14:35:38.901Z,46.90
2022-11-14T14:38:32.659Z,50.50
2022-11-14T14:41:23.060Z,52.70
2022-11-14T14:44:23.665Z,52.20
2022-11-14T14:47:20.139Z,52.00
2022-11-14T14:50:31.459Z,52.05
2022-11-14T14:53:23.810Z,49.70
2022-11-14T14:56:22.592Z,51.00
2022-11-14T14:59:23.703Z,51.58
2022-11-14T15:02:19.564Z,51.83
2022-11-14T15:05:09.216Z,52.30
2022-11-14T15:08:00.921Z,50.90
2022-11-14T15:10:49.676Z,51.53
2022-11-14T15:13:41.069Z,54.17
2022-11-14T15:16:31.087Z,52.80
2022-11-14T15:19:23.618Z,52.72
2022-11-14T15:22:26.354Z,55.03
2022-11-14T15:25:23.152Z,53.70
2022-11-14T15:28:20.810Z,57.40
2022-11-14T15:31:21.121Z,69.22
2022-11-14T15:34:26.000Z,64.63
2022-11-14T15:37:26.261Z,70.45
2022-11-14T15:40:22.712Z,74.35
2022-11-14T15:43:50.849Z,64.93
2022-11-14T15:46:49.265Z,59.67
2022-11-14T15:49:38.474Z,55.22
2022-11-14T15:52:30.592Z,54.20
2022-11-14T15:55:20.857Z,57.75
2022-11-14T15:58:27.789Z,69.05
2022-11-14T16:01:26.218Z,58.05
2022-11-14T16:04:21.108Z,56.35
2022-11-14T16:09:58.252Z,78.90
2022-11-14T16:12:52.236Z,76.68
2022-11-14T16:18:29.838Z,68.68
2022-11-14T16:21:21.841Z,78.35
2022-11-14T16:24:17.161Z,74.70
2022-11-14T16:27:06.752Z,87.88
2022-11-14T16:29:55.545Z,84.95
2022-11-14T16:32:46.426Z,74.50
2022-11-14T16:35:35.769Z,75.97
2022-11-14T16:38:26.941Z,75.28
2022-11-14T16:41:17.630Z,78.93
2022-11-14T16:44:07.414Z,86.65
2022-11-14T16:46:56.221Z,78.05
2022-11-14T16:49:44.870Z,80.00
2022-11-14T16:52:33.760Z,81.38
2022-11-14T16:55:25.669Z,74.22
2022-11-14T16:58:14.367Z,78.10
2022-11-14T17:01:05.682Z,81.60
2022-11-14T17:04:00.128Z,75.43
2022-11-14T17:06:49.289Z,79.18
2022-11-14T17:09:39.079Z,83.15
2022-11-14T17:12:30.647Z,74.28
2022-11-14T17:15:23.819Z,74.70
2022-11-14T17:18:14.129Z,73.28
2022-11-14T17:21:02.603Z,75.95
2022-11-14T17:23:56.691Z,92.93
2022-11-14T17:26:45.340Z,76.75
2022-11-14T17:29:36.944Z,66.05
2022-11-14T17:32:25.684Z,62.88
2022-11-14T17:35:15.887Z,54.22
2022-11-14T17:38:04.953Z,52.20
2022-11-14T17:41:00.766Z,61.85
2022-11-14T17:43:51.553Z,55.15
2022-11-14T17:46:43.753Z,54.05
2022-11-14T17:49:33.326Z,53.60
2022-11-14T17:52:21.878Z,52.33
2022-11-14T17:55:14.096Z,66.63
2022-11-14T17:58:02.796Z,51.30
2022-11-14T18:00:54.372Z,59.35
2022-11-14T18:03:45.870Z,53.67
2022-11-14T18:06:36.111Z,59.70
2022-11-14T18:09:24.781Z,60.20
2022-11-14T18:12:13.696Z,55.03
2022-11-14T18:15:02.552Z,54.42
2022-11-14T18:17:51.249Z,53.65
2022-11-14T18:20:44.562Z,64.63
2022-11-14T18:23:33.085Z,55.88
2022-11-14T18:26:28.024Z,57.42
2022-11-14T18:29:17.948Z,67.35
2022-11-14T18:32:06.624Z,75.32
2022-11-14T18:34:55.755Z,66.80
2022-11-14T18:37:47.008Z,73.18
2022-11-14T18:40:36.692Z,68.10
2022-11-14T18:43:25.832Z,63.17
2022-11-14T18:46:16.197Z,57.47
2022-11-14T18:49:04.923Z,55.72
2022-11-14T18:51:53.177Z,58.63
2022-11-14T18:54:44.594Z,56.08
2022-11-14T18:57:33.364Z,53.95
2022-11-14T19:00:28.357Z,57.28
2022-11-14T19:03:17.276Z,56.47
2022-11-14T19:06:06.681Z,59.40
2022-11-14T19:08:59.303Z,55.85
2022-11-14T19:12:02.891Z,54.72
2022-11-14T19:14:53.956Z,56.72
2022-11-14T19:17:43.189Z,55.40
2022-11-14T19:20:32.368Z,53.00
2022-11-14T19:23:23.326Z,50.53
2022-11-14T19:26:13.117Z,52.15
2022-11-14T19:29:05.777Z,50.00
2022-11-14T19:31:54.846Z,51.05
2022-11-14T19:34:43.755Z,65.90
2022-11-14T19:37:32.167Z,56.33
2022-11-14T19:40:20.964Z,55.25
2022-11-14T19:43:09.474Z,60.95
2022-11-14T19:46:04.114Z,61.50
2022-11-14T19:48:52.923Z,70.88
2022-11-14T19:51:41.852Z,56.97
2022-11-14T19:54:30.547Z,57.97
2022-11-14T19:57:19.523Z,54.67
2022-11-14T20:00:09.984Z,47.13
2022-11-14T20:03:01.407Z,56.05
2022-11-14T20:05:50.472Z,63.53
2022-11-14T20:08:39.347Z,55.80
2022-11-14T20:11:30.731Z,62.30
2022-11-14T20:14:19.855Z,58.30
2022-11-14T20:17:09.082Z,59.50
2022-11-14T20:20:01.393Z,62.03
2022-11-14T20:22:49.998Z,65.80
2022-11-14T20:25:39.286Z,60.47
2022-11-14T20:28:28.095Z,77.32
2022-11-14T20:31:22.128Z,64.43
2022-11-14T20:34:11.193Z,80.53
2022-11-14T20:37:11.043Z,60.17
2022-11-14T20:40:00.634Z,67.50
2022-11-14T20:42:51.041Z,82.43
2022-11-14T20:45:44.015Z,57.88
2022-11-14T20:48:34.386Z,58.22
2022-11-14T20:51:25.727Z,53.72
2022-11-14T20:54:17.623Z,64.28
2022-11-14T20:57:06.348Z,67.82
2022-11-14T20:59:55.659Z,64.90
2022-11-14T21:02:45.058Z,54.97
2022-11-14T21:05:34.163Z,54.55
2022-11-14T21:08:41.545Z,56.70
2022-11-14T21:11:33.954Z,61.10
2022-11-14T21:14:22.862Z,66.82
2022-11-14T21:17:13.745Z,65.13
2022-11-14T21:20:02.915Z,54.17
2022-11-14T21:22:51.553Z,50.65
2022-11-14T21:25:40.183Z,57.22
2022-11-14T21:28:36.219Z,71.47
2022-11-14T21:31:28.638Z,59.60
2022-11-14T21:34:18.727Z,57.40
2022-11-14T21:37:07.237Z,54.63
2022-11-14T21:39:56.199Z,67.38
2022-11-14T21:42:45.099Z,66.32
2022-11-14T21:45:38.196Z,68.70
2022-11-14T21:48:27.570Z,63.65
2022-11-14T21:51:19.783Z,73.00
2022-11-14T21:54:08.519Z,63.67
2022-11-14T21:56:57.278Z,65.75
2022-11-14T21:59:46.192Z,61.30
2022-11-14T22:02:52.714Z,59.33
2022-11-14T22:05:41.375Z,63.00
2022-11-14T22:08:30.331Z,74.40
2022-11-14T22:11:18.815Z,62.65
2022-11-14T22:14:07.623Z,63.63
2022-11-14T22:16:58.124Z,59.95
2022-11-14T22:19:49.644Z,65.00
2022-11-14T22:22:38.294Z,65.30
2022-11-14T22:25:27.116Z,67.03
2022-11-14T22:28:15.821Z,66.97
2022-11-14T22:31:10.327Z,63.90
2022-11-14T22:34:01.115Z,66.90
2022-11-14T22:36:52.512Z,62.22
2022-11-14T22:39:41.630Z,61.38
2022-11-14T22:42:30.070Z,61.03
2022-11-14T22:45:19.757Z,58.17
2022-11-14T22:48:08.883Z,67.25
2022-11-14T22:51:02.822Z,81.13
2022-11-14T22:53:55.296Z,65.22
2022-11-14T22:56:44.090Z,70.93
2022-11-14T22:59:32.660Z,57.53
2022-11-14T23:02:21.275Z,54.95
2022-11-14T23:05:10.564Z,56.45
2022-11-14T23:07:59.181Z,53.28
2022-11-14T23:10:51.292Z,53.72
2022-11-14T23:13:40.867Z,57.58
2022-11-14T23:16:31.371Z,56.10
2022-11-14T23:19:21.581Z,55.70
2022-11-14T23:22:09.909Z,54.83
2022-11-14T23:24:59.021Z,57.55
2022-11-14T23:27:50.609Z,62.17
2022-11-14T23:30:41.792Z,61.38
2022-11-14T23:33:31.782Z,61.63
2022-11-14T23:36:20.758Z,57.45
2022-11-14T23:39:09.363Z,56.70
2022-11-14T23:41:58.087Z,63.13
2022-11-14T23:44:49.891Z,54.75
2022-11-14T23:47:39.157Z,49.85
2022-11-14T23:50:27.956Z,57.47
2022-11-14T23:53:16.409Z,51.10
2022-11-14T23:56:07.734Z,53.92
2022-11-14T23:58:56.333Z,62.67
